Terminal Aerodrome Forecast
Issued by NWS

Home | Current Version | Previous Version | Text Only | Print | Product List | Glossary On
Versions: 1 2 3 4 5 6 7 8 9 10 11 12 13 14 15 16 17 18
000
FTUS45 KRIW 180100 AAA
TAFCPR
TAF AMD
KCPR 180101Z 1801/1824 26010KT P6SM SCT250
     FM180300 23011KT P6SM FEW120 SCT200
     FM181100 22015G23KT P6SM SCT120 BKN200=

USA.gov is the U.S. government's official web portal to all federal, state and local government web resources and services.